Time;durP1;ratioP1;P1;durP2;ratioP2;P2;SDS_P1;SDS_P2;PMS_P1;PMS_P2;Temp;Humidity;BMP_temperature;BMP_pressure;BME280_temperature;BME280_humidity;BME280_pressure;Samples;Min_cycle;Max_cycle;Signal;HPM_P1;HPM_P2
2022/03/24 00:00:24;;;;;;;52.53;43.13;;;11.20;99.90;;;;;;4960796;28;20071;-64
2022/03/24 00:02:50;;;;;;;53.33;43.25;;;11.20;99.90;;;;;;4954075;28;20039;-64
2022/03/24 00:05:15;;;;;;;58.25;43.38;;;11.20;99.90;;;;;;4955345;28;20518;-64
2022/03/24 00:07:41;;;;;;;56.80;45.47;;;11.10;99.90;;;;;;4954498;28;20173;-64
2022/03/24 00:10:08;;;;;;;59.08;45.63;;;11.00;99.90;;;;;;4955195;28;20607;-64
2022/03/24 00:12:34;;;;;;;50.22;41.63;;;10.90;99.90;;;;;;4955368;28;20081;-64
2022/03/24 00:15:01;;;;;;;56.45;43.70;;;11.00;99.90;;;;;;4955790;28;20048;-64
2022/03/24 00:17:27;;;;;;;54.15;44.40;;;10.90;99.90;;;;;;4960985;28;20479;-64
2022/03/24 00:19:52;;;;;;;51.78;44.03;;;10.90;99.90;;;;;;4974946;28;20092;-64
2022/03/24 00:22:18;;;;;;;59.72;44.38;;;10.80;99.90;;;;;;4974364;28;20042;-64
2022/03/24 00:24:44;;;;;;;67.80;45.47;;;10.80;99.90;;;;;;4971937;28;20057;-64
2022/03/24 00:27:09;;;;;;;60.72;46.90;;;10.80;99.90;;;;;;4983926;28;20078;-64
2022/03/24 00:29:35;;;;;;;56.25;44.72;;;10.70;99.90;;;;;;4993596;28;20137;-64
2022/03/24 00:32:00;;;;;;;59.65;45.97;;;10.70;99.90;;;;;;4993949;28;20054;-64
2022/03/24 00:34:26;;;;;;;59.03;47.33;;;10.70;99.90;;;;;;4976552;28;20145;-64
2022/03/24 00:36:51;;;;;;;56.30;46.28;;;10.70;99.90;;;;;;4974008;28;20042;-64
2022/03/24 00:39:17;;;;;;;57.47;46.03;;;10.70;99.90;;;;;;4973285;28;20054;-64
2022/03/24 00:41:43;;;;;;;59.45;46.95;;;10.60;99.90;;;;;;4962940;28;20050;-64
2022/03/24 00:44:09;;;;;;;59.88;47.78;;;10.60;99.90;;;;;;4954342;28;20597;-64
2022/03/24 00:46:35;;;;;;;59.30;48.97;;;10.50;99.90;;;;;;4954855;28;20426;-64
2022/03/24 00:49:01;;;;;;;71.65;53.10;;;10.50;99.90;;;;;;4971549;28;20050;-64
2022/03/24 00:51:26;;;;;;;71.97;53.42;;;10.50;99.90;;;;;;4972954;28;20536;-64
2022/03/24 00:53:52;;;;;;;71.03;52.58;;;10.50;99.90;;;;;;4974390;28;20471;-64
2022/03/24 00:56:18;;;;;;;71.28;55.05;;;10.50;99.90;;;;;;4973373;28;20056;-64
2022/03/24 00:58:44;;;;;;;80.05;58.72;;;10.50;99.90;;;;;;4954176;28;20186;-64
2022/03/24 01:01:12;;;;;;;73.80;58.28;;;10.50;99.90;;;;;;4955123;28;20067;-64
2022/03/24 01:03:41;;;;;;;74.15;56.53;;;10.40;99.90;;;;;;4984737;28;20394;-64
2022/03/24 01:06:08;;;;;;;74.57;58.90;;;10.40;99.90;;;;;;4955146;28;20078;-64
2022/03/24 01:08:34;;;;;;;72.07;55.55;;;10.30;99.90;;;;;;4964089;28;20061;-64
2022/03/24 01:11:01;;;;;;;75.30;58.50;;;10.20;99.90;;;;;;4974248;28;20050;-64
2022/03/24 01:13:30;;;;;;;73.30;58.63;;;10.20;99.90;;;;;;4970055;28;20050;-64
2022/03/24 01:15:56;;;;;;;76.43;58.70;;;10.20;99.90;;;;;;4974242;28;20078;-64
2022/03/24 01:18:22;;;;;;;75.97;60.20;;;10.20;99.90;;;;;;4973353;28;20525;-64
2022/03/24 01:20:48;;;;;;;81.28;61.35;;;10.20;99.90;;;;;;4971354;28;20047;-64
2022/03/24 01:23:13;;;;;;;80.88;62.30;;;10.10;99.90;;;;;;4973345;28;20057;-64
2022/03/24 01:25:42;;;;;;;74.28;61.47;;;10.10;99.90;;;;;;4973683;28;20051;-64
2022/03/24 01:28:13;;;;;;;76.60;61.50;;;10.10;99.90;;;;;;4981984;28;20046;-64
2022/03/24 01:30:39;;;;;;;77.88;60.13;;;10.10;99.90;;;;;;4972971;28;20105;-64
2022/03/24 01:33:05;;;;;;;81.97;62.63;;;10.10;99.90;;;;;;4973037;28;20046;-64
2022/03/24 01:35:31;;;;;;;77.65;60.70;;;10.10;99.90;;;;;;4972930;28;20050;-64
2022/03/24 01:37:57;;;;;;;78.25;62.42;;;10.10;99.90;;;;;;4956190;28;20109;-64
2022/03/24 01:40:24;;;;;;;77.65;61.20;;;10.00;99.90;;;;;;4972201;28;20042;-64
2022/03/24 01:42:50;;;;;;;79.45;62.63;;;10.00;99.90;;;;;;4962132;28;20055;-64
2022/03/24 01:45:16;;;;;;;82.25;63.97;;;9.90;99.90;;;;;;4952377;28;20122;-64
2022/03/24 01:47:41;;;;;;;81.93;62.80;;;9.90;99.90;;;;;;4953397;28;20051;-64
2022/03/24 01:50:09;;;;;;;85.43;64.18;;;9.90;99.90;;;;;;4966199;28;20047;-64
2022/03/24 01:52:35;;;;;;;80.05;63.08;;;9.80;99.90;;;;;;4972867;28;20097;-64
2022/03/24 01:55:03;;;;;;;76.50;61.45;;;9.90;99.90;;;;;;4970475;28;20482;-64
2022/03/24 01:57:29;;;;;;;84.38;65.25;;;9.90;99.90;;;;;;4981977;28;20129;-64
2022/03/24 01:59:55;;;;;;;83.35;66.25;;;9.80;99.90;;;;;;4952399;28;20043;-64
2022/03/24 02:02:22;;;;;;;85.88;66.32;;;9.80;99.90;;;;;;4952560;28;20051;-64
2022/03/24 02:04:48;;;;;;;88.13;66.30;;;9.70;99.90;;;;;;4953841;28;20105;-64
2022/03/24 02:07:13;;;;;;;84.05;63.75;;;9.70;99.90;;;;;;4961988;28;20474;-65
2022/03/24 02:09:40;;;;;;;82.00;64.93;;;9.60;99.90;;;;;;4971740;28;20058;-63
2022/03/24 02:12:10;;;;;;;83.85;66.65;;;9.70;99.90;;;;;;4971023;28;20059;-64
2022/03/24 02:14:37;;;;;;;91.75;68.07;;;9.70;99.90;;;;;;4970907;28;20049;-64
2022/03/24 02:17:03;;;;;;;95.93;71.25;;;9.70;99.90;;;;;;4972438;28;20054;-64
2022/03/24 02:19:29;;;;;;;92.80;71.93;;;9.60;99.90;;;;;;4971146;28;20058;-64
2022/03/24 02:21:58;;;;;;;90.32;70.95;;;9.70;99.90;;;;;;4970595;28;20043;-64
2022/03/24 02:24:25;;;;;;;87.43;69.93;;;9.60;99.90;;;;;;4971175;28;20058;-64
2022/03/24 02:26:52;;;;;;;91.10;73.25;;;9.60;99.90;;;;;;4980497;28;20541;-64
2022/03/24 02:29:25;;;;;;;98.93;71.72;;;9.50;99.90;;;;;;4976403;28;20050;-64
2022/03/24 02:31:52;;;;;;;96.30;74.60;;;9.50;99.90;;;;;;4972604;28;20054;-64
2022/03/24 02:34:40;;;;;;;102.55;73.05;;;9.50;99.90;;;;;;4968642;28;20050;-64
2022/03/24 02:37:11;;;;;;;95.80;74.05;;;9.50;99.90;;;;;;4970086;28;20066;-64
2022/03/24 02:39:38;;;;;;;95.93;74.47;;;9.40;99.90;;;;;;4975281;28;20378;-64
2022/03/24 02:42:05;;;;;;;96.65;74.85;;;9.40;99.90;;;;;;4992289;28;20061;-64
2022/03/24 02:44:32;;;;;;;98.40;74.95;;;9.40;99.90;;;;;;4980154;28;20044;-64
2022/03/24 02:47:00;;;;;;;98.03;73.97;;;9.40;99.90;;;;;;4953420;28;20126;-64
2022/03/24 02:49:28;;;;;;;93.15;73.25;;;9.40;99.90;;;;;;4952755;28;20043;-64
2022/03/24 02:51:58;;;;;;;102.35;76.43;;;9.30;99.90;;;;;;4952771;28;20051;-64
2022/03/24 02:54:24;;;;;;;103.68;76.75;;;9.40;99.90;;;;;;4961467;28;20050;-64
2022/03/24 02:56:50;;;;;;;93.68;72.40;;;9.30;99.90;;;;;;4978257;28;20112;-64
2022/03/24 02:59:16;;;;;;;102.30;76.05;;;9.30;99.90;;;;;;4959312;28;20047;-64
2022/03/24 03:01:46;;;;;;;94.63;71.57;;;9.30;99.90;;;;;;4952889;28;20043;-64
2022/03/24 03:04:13;;;;;;;101.82;72.93;;;9.30;99.90;;;;;;4953412;28;20415;-64
2022/03/24 03:06:39;;;;;;;92.50;70.70;;;9.30;99.90;;;;;;4953667;28;20087;-64
2022/03/24 03:09:05;;;;;;;100.47;75.10;;;9.30;99.90;;;;;;4952939;28;20083;-64
2022/03/24 03:11:31;;;;;;;99.70;74.90;;;9.20;99.90;;;;;;4954497;28;20043;-64
2022/03/24 03:13:58;;;;;;;96.88;75.13;;;9.20;99.90;;;;;;4971897;28;20035;-64
2022/03/24 03:16:24;;;;;;;94.35;72.28;;;9.20;99.90;;;;;;4956758;28;20063;-64
2022/03/24 03:18:50;;;;;;;103.63;74.43;;;9.20;99.90;;;;;;4952242;28;20043;-64
2022/03/24 03:21:16;;;;;;;100.93;72.90;;;9.20;99.90;;;;;;4967755;28;20038;-63
2022/03/24 03:23:43;;;;;;;103.28;78.03;;;9.10;99.90;;;;;;4970363;28;20053;-64
2022/03/24 03:26:10;;;;;;;104.10;75.72;;;9.10;99.90;;;;;;4972834;28;20545;-64
2022/03/24 03:28:36;;;;;;;101.57;74.03;;;9.00;99.90;;;;;;4979646;28;20038;-64
2022/03/24 03:31:02;;;;;;;92.63;70.00;;;8.90;99.90;;;;;;4971597;28;20066;-64
2022/03/24 03:33:28;;;;;;;100.97;74.75;;;8.90;99.90;;;;;;4968924;28;20038;-64
2022/03/24 03:35:54;;;;;;;100.45;72.93;;;8.90;99.90;;;;;;4970684;28;20094;-64
2022/03/24 03:38:20;;;;;;;101.13;75.07;;;8.80;99.90;;;;;;4971164;28;20047;-64
2022/03/24 03:40:46;;;;;;;103.95;77.07;;;8.90;99.90;;;;;;4983670;28;20038;-64
2022/03/24 03:43:12;;;;;;;99.10;72.60;;;8.80;99.90;;;;;;4986357;28;20047;-64
2022/03/24 03:45:38;;;;;;;95.43;70.75;;;8.70;99.90;;;;;;4970584;28;20065;-64
2022/03/24 03:48:05;;;;;;;99.03;69.97;;;8.60;99.90;;;;;;4969562;28;20046;-64
2022/03/24 03:50:30;;;;;;;96.53;71.85;;;8.60;99.90;;;;;;4971237;28;20051;-64
2022/03/24 03:52:56;;;;;;;99.68;74.70;;;8.60;99.90;;;;;;4971908;28;20057;-64
2022/03/24 03:55:22;;;;;;;104.82;76.05;;;8.60;99.90;;;;;;4970723;28;20453;-64
2022/03/24 03:57:48;;;;;;;96.57;72.13;;;8.50;99.90;;;;;;4972424;28;20057;-64
2022/03/24 04:03:03;;;;;;;96.47;69.97;;;8.60;99.90;;;;;;4961673;28;20079;-64
2022/03/24 04:05:33;;;;;;;94.00;72.65;;;8.60;99.90;;;;;;4963288;28;20046;-64
2022/03/24 04:07:59;;;;;;;98.47;73.45;;;8.60;99.90;;;;;;4971306;28;20047;-64
2022/03/24 04:10:27;;;;;;;93.18;70.25;;;8.60;99.90;;;;;;4971175;28;20501;-64
2022/03/24 04:12:53;;;;;;;94.28;67.95;;;8.60;99.90;;;;;;4951634;28;20114;-64
2022/03/24 04:15:19;;;;;;;97.38;71.28;;;8.60;99.90;;;;;;4950865;28;20514;-64
2022/03/24 04:17:44;;;;;;;98.55;71.63;;;8.40;99.90;;;;;;4968849;28;20043;-64
2022/03/24 04:20:12;;;;;;;96.55;70.18;;;8.40;99.90;;;;;;4971668;28;20085;-64
2022/03/24 04:22:37;;;;;;;95.10;69.40;;;8.30;99.90;;;;;;4970091;28;20043;-64
2022/03/24 04:25:05;;;;;;;96.05;70.40;;;8.30;99.90;;;;;;4971197;28;20403;-64
2022/03/24 04:27:30;;;;;;;96.90;69.63;;;8.30;99.90;;;;;;4956870;28;20126;-64
2022/03/24 04:29:56;;;;;;;99.72;71.53;;;8.30;99.90;;;;;;4951254;28;20170;-64
2022/03/24 04:32:22;;;;;;;94.57;69.88;;;8.30;99.90;;;;;;4951454;28;20043;-64
2022/03/24 04:34:47;;;;;;;98.15;73.25;;;8.30;99.90;;;;;;4961307;28;20051;-64
2022/03/24 04:37:14;;;;;;;94.88;71.20;;;8.20;99.90;;;;;;4974140;28;20070;-64
2022/03/24 04:39:40;;;;;;;95.47;71.32;;;8.20;99.90;;;;;;4977223;28;20125;-64
2022/03/24 04:42:06;;;;;;;96.25;72.90;;;8.20;99.90;;;;;;4989079;28;20077;-64
2022/03/24 04:44:33;;;;;;;95.10;69.65;;;8.20;99.90;;;;;;4953528;28;20499;-64
2022/03/24 04:46:59;;;;;;;97.88;71.88;;;8.20;99.90;;;;;;4955159;28;20047;-64
2022/03/24 04:49:26;;;;;;;93.55;69.78;;;8.20;99.90;;;;;;4954752;28;20035;-64
2022/03/24 04:51:52;;;;;;;96.15;69.13;;;8.10;99.90;;;;;;4970676;28;20043;-64
2022/03/24 04:54:18;;;;;;;96.88;71.95;;;8.00;99.90;;;;;;4974115;28;20043;-64
2022/03/24 04:56:44;;;;;;;96.75;70.95;;;8.00;99.90;;;;;;4969488;28;20058;-64
2022/03/24 04:59:10;;;;;;;96.18;72.15;;;8.00;99.90;;;;;;4963765;28;20039;-64
2022/03/24 05:01:35;;;;;;;90.03;67.10;;;8.00;99.90;;;;;;4984677;28;20042;-64
2022/03/24 05:04:01;;;;;;;90.30;64.07;;;7.90;99.90;;;;;;4993081;28;20505;-64
2022/03/24 05:06:26;;;;;;;91.47;66.50;;;8.00;99.90;;;;;;4974934;28;20043;-64
2022/03/24 05:08:52;;;;;;;89.22;66.30;;;8.10;99.90;;;;;;4974116;28;20055;-64
2022/03/24 05:11:17;;;;;;;94.45;68.47;;;8.00;99.90;;;;;;4959768;28;20051;-64
2022/03/24 05:13:45;;;;;;;91.28;65.97;;;8.10;99.90;;;;;;4954534;28;20110;-64
2022/03/24 05:16:10;;;;;;;87.43;65.15;;;8.00;99.90;;;;;;4954940;28;20043;-64
2022/03/24 05:18:38;;;;;;;93.53;68.43;;;8.10;99.90;;;;;;4953377;28;20051;-64
2022/03/24 05:21:04;;;;;;;91.80;67.38;;;8.00;99.90;;;;;;4967751;28;20043;-64
2022/03/24 05:23:30;;;;;;;88.28;63.80;;;8.00;99.90;;;;;;4970715;28;20097;-64
2022/03/24 05:25:56;;;;;;;96.32;68.90;;;8.00;99.90;;;;;;4955473;28;20487;-64
2022/03/24 05:28:22;;;;;;;90.93;63.80;;;8.00;99.90;;;;;;4992760;28;20177;-64
2022/03/24 05:30:48;;;;;;;87.10;62.25;;;8.10;99.90;;;;;;4993078;28;20129;-64
2022/03/24 05:33:14;;;;;;;85.20;61.85;;;8.00;99.90;;;;;;4985514;28;20125;-64
2022/03/24 05:35:39;;;;;;;84.93;61.97;;;8.10;99.90;;;;;;4972937;28;20063;-64
2022/03/24 05:38:05;;;;;;;85.95;63.35;;;8.10;99.90;;;;;;4973446;28;20049;-64
2022/03/24 05:40:31;;;;;;;85.35;63.75;;;8.10;99.90;;;;;;4982987;28;20129;-64
2022/03/24 05:42:57;;;;;;;84.47;60.92;;;8.10;99.90;;;;;;4981909;28;20390;-64
2022/03/24 05:45:23;;;;;;;87.72;62.30;;;8.10;99.90;;;;;;4972186;28;20051;-64
2022/03/24 05:47:48;;;;;;;83.70;62.30;;;8.10;99.90;;;;;;4973076;28;20143;-63
2022/03/24 05:50:14;;;;;;;84.50;61.65;;;8.10;99.90;;;;;;4972071;28;20053;-64
2022/03/24 05:52:40;;;;;;;86.00;63.13;;;8.10;99.90;;;;;;4962044;28;20079;-64
2022/03/24 05:55:07;;;;;;;81.22;59.17;;;8.00;99.90;;;;;;4953441;28;20162;-64
2022/03/24 05:57:32;;;;;;;87.72;60.22;;;8.00;99.90;;;;;;4983648;28;20049;-64
2022/03/24 05:59:58;;;;;;;85.03;62.42;;;7.90;99.90;;;;;;4973325;28;20042;-64
2022/03/24 06:02:25;;;;;;;92.97;62.90;;;8.00;99.90;;;;;;4971766;28;20561;-64
2022/03/24 06:04:52;;;;;;;86.07;62.83;;;7.90;99.90;;;;;;4971573;28;20050;-64
2022/03/24 06:07:17;;;;;;;83.55;60.95;;;7.90;99.90;;;;;;4972154;28;20043;-64
2022/03/24 06:09:45;;;;;;;79.78;59.00;;;7.90;99.90;;;;;;4973218;28;20133;-64
2022/03/24 06:12:12;;;;;;;86.28;62.55;;;8.00;99.90;;;;;;4971510;28;20510;-64
2022/03/24 06:14:40;;;;;;;85.95;61.53;;;8.00;99.90;;;;;;4952585;28;20043;-64
2022/03/24 06:17:06;;;;;;;89.50;63.53;;;8.10;99.90;;;;;;4959471;28;20406;-64
2022/03/24 06:19:34;;;;;;;84.15;61.10;;;8.10;99.90;;;;;;4970658;28;20126;-64
2022/03/24 06:22:01;;;;;;;86.43;63.38;;;8.20;99.90;;;;;;4956334;28;20043;-64
2022/03/24 06:24:27;;;;;;;86.97;63.47;;;8.20;99.90;;;;;;4951693;28;20058;-64
2022/03/24 06:26:53;;;;;;;86.43;61.03;;;8.20;99.90;;;;;;4953462;28;20083;-64
2022/03/24 06:29:19;;;;;;;84.45;62.00;;;8.30;99.90;;;;;;4967043;28;20493;-64
2022/03/24 06:31:45;;;;;;;95.13;64.93;;;8.30;99.90;;;;;;4972707;28;20043;-64
2022/03/24 06:34:10;;;;;;;88.13;63.15;;;8.40;99.90;;;;;;4956303;28;20590;-64
2022/03/24 06:36:37;;;;;;;89.20;65.00;;;8.40;99.90;;;;;;4951948;28;20091;-64
2022/03/24 06:39:03;;;;;;;88.88;66.13;;;8.50;99.90;;;;;;4950454;28;20196;-64
2022/03/24 06:41:28;;;;;;;91.22;64.25;;;8.60;99.90;;;;;;4955383;28;20134;-64
2022/03/24 06:43:57;;;;;;;87.35;65.00;;;8.70;99.90;;;;;;4951320;29;20130;-64
2022/03/24 06:46:23;;;;;;;96.40;67.05;;;8.80;99.90;;;;;;4952644;28;20055;-64
2022/03/24 06:48:49;;;;;;;89.70;66.57;;;8.80;99.90;;;;;;4951619;28;20043;-64
2022/03/24 06:51:14;;;;;;;91.03;66.20;;;8.90;99.90;;;;;;4951755;28;20569;-64
2022/03/24 06:53:40;;;;;;;94.75;68.40;;;8.90;99.90;;;;;;4952978;28;20044;-64
2022/03/24 06:56:06;;;;;;;97.70;68.30;;;9.00;99.90;;;;;;4958989;28;20055;-64
2022/03/24 06:58:32;;;;;;;96.68;70.22;;;9.00;99.90;;;;;;4963904;28;20130;-64
2022/03/24 07:00:57;;;;;;;102.90;68.30;;;9.10;99.90;;;;;;4952880;28;20138;-64
2022/03/24 07:03:23;;;;;;;97.38;68.43;;;9.10;99.90;;;;;;4952115;28;20054;-64
2022/03/24 07:05:49;;;;;;;100.00;70.63;;;9.20;99.90;;;;;;4950560;28;20051;-64
2022/03/24 07:08:14;;;;;;;102.18;70.97;;;9.20;99.90;;;;;;4971941;28;20062;-64
2022/03/24 07:10:40;;;;;;;103.82;69.72;;;9.30;99.90;;;;;;4968956;28;20101;-64
2022/03/24 07:13:06;;;;;;;93.78;68.35;;;9.30;99.90;;;;;;4971639;28;20047;-64
2022/03/24 07:15:33;;;;;;;100.80;69.53;;;9.40;99.90;;;;;;4971297;28;20051;-64
2022/03/24 07:17:58;;;;;;;98.13;69.32;;;9.40;99.90;;;;;;4971236;28;20051;-63
2022/03/24 07:20:24;;;;;;;105.53;71.85;;;9.40;99.90;;;;;;4958735;28;20058;-64
2022/03/24 07:22:49;;;;;;;112.50;69.55;;;9.50;99.90;;;;;;4983346;28;20055;-64
2022/03/24 07:25:15;;;;;;;100.90;72.10;;;9.60;99.90;;;;;;4967337;28;20054;-64
2022/03/24 07:27:42;;;;;;;98.38;68.03;;;9.60;99.90;;;;;;4990853;28;20117;-64
2022/03/24 07:30:09;;;;;;;107.25;70.63;;;9.70;99.90;;;;;;4988739;28;20493;-64
2022/03/24 07:32:35;;;;;;;100.70;70.68;;;9.70;99.90;;;;;;4969657;28;20091;-64
2022/03/24 07:35:04;;;;;;;94.18;70.35;;;9.80;99.90;;;;;;4971520;28;20063;-64
2022/03/24 07:37:30;;;;;;;98.95;68.95;;;9.80;99.90;;;;;;4968715;28;20407;-64
2022/03/24 07:39:56;;;;;;;96.80;68.82;;;9.80;99.90;;;;;;4972317;28;20046;-64
2022/03/24 07:42:22;;;;;;;98.93;68.85;;;9.90;99.90;;;;;;4969352;28;20039;-64
2022/03/24 07:44:48;;;;;;;98.97;69.50;;;10.00;99.90;;;;;;4952267;28;20436;-64
2022/03/24 07:47:14;;;;;;;98.07;69.63;;;10.00;99.90;;;;;;4951445;28;20058;-64
2022/03/24 07:49:40;;;;;;;102.57;70.63;;;10.10;99.90;;;;;;4952184;28;20058;-64
2022/03/24 07:52:12;;;;;;;94.57;67.60;;;10.20;99.90;;;;;;4950764;28;20051;-64
2022/03/24 07:54:55;;;;;;;94.90;66.32;;;10.30;99.90;;;;;;4950074;29;20150;-64
2022/03/24 07:57:21;;;;;;;;;;;10.40;99.90;;;;;;4977359;28;20051;-64
2022/03/24 07:59:47;;;;;;;93.13;66.07;;;10.40;99.90;;;;;;4970400;28;19922;-64
2022/03/24 08:02:13;;;;;;;93.03;65.00;;;10.50;99.90;;;;;;4971592;28;20510;-64
2022/03/24 08:04:39;;;;;;;96.82;65.07;;;10.60;99.90;;;;;;4971455;28;20864;-64
2022/03/24 08:07:05;;;;;;;93.90;64.25;;;10.70;99.90;;;;;;4969005;28;20146;-64
2022/03/24 08:09:32;;;;;;;94.35;64.22;;;10.80;99.90;;;;;;4972011;28;20130;-64
2022/03/24 08:11:58;;;;;;;88.70;59.92;;;11.20;99.90;;;;;;4973028;28;20395;-64
2022/03/24 08:14:24;;;;;;;80.75;59.55;;;11.60;99.90;;;;;;4973944;28;20047;-64
2022/03/24 08:16:50;;;;;;;82.93;59.40;;;12.50;99.90;;;;;;4975296;28;20049;-64
2022/03/24 08:19:16;;;;;;;85.32;58.55;;;13.20;99.90;;;;;;4974627;28;20042;-64
2022/03/24 08:21:42;;;;;;;81.00;55.47;;;13.90;99.90;;;;;;4971901;28;20064;-64
2022/03/24 08:24:09;;;;;;;77.15;55.92;;;14.40;99.90;;;;;;4975141;28;20535;-64
2022/03/24 08:26:35;;;;;;;71.20;52.88;;;14.90;99.90;;;;;;4977929;28;20700;-64
2022/03/24 08:29:01;;;;;;;79.15;48.40;;;15.30;99.90;;;;;;4954624;28;20043;-63
2022/03/24 08:31:26;;;;;;;66.85;50.58;;;15.80;99.90;;;;;;4955058;28;20479;-64
2022/03/24 08:33:52;;;;;;;64.18;46.42;;;16.20;99.90;;;;;;4960750;28;20084;-64
2022/03/24 08:36:18;;;;;;;69.65;49.60;;;16.60;99.90;;;;;;4973705;28;20301;-64
2022/03/24 08:38:44;;;;;;;62.97;46.85;;;16.90;99.90;;;;;;4962588;28;20768;-63
2022/03/24 08:41:09;;;;;;;66.53;46.65;;;17.10;99.40;;;;;;4961656;28;20039;-64
2022/03/24 08:43:35;;;;;;;58.10;45.33;;;17.50;97.60;;;;;;4954391;28;20506;-64
2022/03/24 08:46:01;;;;;;;67.32;44.03;;;17.80;97.10;;;;;;4954743;28;20462;-64
2022/03/24 08:48:26;;;;;;;53.15;41.70;;;17.80;96.70;;;;;;4954401;28;20093;-64
2022/03/24 08:50:52;;;;;;;55.65;40.15;;;18.00;95.80;;;;;;4953134;28;20091;-64
2022/03/24 08:53:18;;;;;;;61.28;41.03;;;18.20;95.10;;;;;;4953525;28;20032;-64
2022/03/24 08:55:43;;;;;;;56.58;42.60;;;18.40;94.20;;;;;;4960881;28;20556;-64
2022/03/24 08:58:10;;;;;;;52.88;41.20;;;18.70;93.60;;;;;;4984399;28;20050;-64
2022/03/24 09:00:35;;;;;;;53.35;41.40;;;18.80;92.50;;;;;;4973859;28;20066;-64
2022/03/24 09:03:01;;;;;;;53.67;41.22;;;18.70;92.00;;;;;;4971396;28;20042;-64
2022/03/24 09:05:26;;;;;;;50.88;38.17;;;19.10;91.80;;;;;;4973497;28;20074;-64
2022/03/24 09:07:52;;;;;;;56.13;42.15;;;19.40;91.20;;;;;;4974498;28;20054;-64
2022/03/24 09:10:18;;;;;;;48.28;37.92;;;19.50;90.40;;;;;;4973372;28;20055;-64
2022/03/24 09:12:47;;;;;;;50.67;39.05;;;19.50;90.30;;;;;;4960975;28;20051;-64
2022/03/24 09:15:14;;;;;;;49.38;40.10;;;19.80;89.60;;;;;;4955240;28;20486;-64
2022/03/24 09:17:40;;;;;;;49.55;36.92;;;19.80;87.60;;;;;;4954340;28;20043;-64
2022/03/24 09:20:09;;;;;;;47.28;37.13;;;20.00;87.90;;;;;;4961868;28;20054;-64
2022/03/24 09:22:43;;;;;;;46.17;38.33;;;19.90;86.30;;;;;;4959510;28;20051;-64
2022/03/24 09:25:10;;;;;;;44.28;34.55;;;20.00;85.50;;;;;;4953594;28;20517;-64
2022/03/24 09:27:37;;;;;;;46.17;34.00;;;20.00;85.50;;;;;;4954067;28;20051;-64
2022/03/24 09:30:05;;;;;;;39.55;32.10;;;20.00;85.10;;;;;;4964694;28;20046;-64
2022/03/24 09:32:31;;;;;;;40.33;33.05;;;20.00;84.10;;;;;;4972474;28;20044;-65
2022/03/24 09:34:57;;;;;;;54.13;37.65;;;20.20;83.50;;;;;;4973489;28;20054;-64
2022/03/24 09:37:23;;;;;;;52.03;38.92;;;20.10;84.20;;;;;;4973122;28;20057;-64
2022/03/24 09:39:50;;;;;;;43.60;35.20;;;20.40;84.60;;;;;;4975020;28;20046;-64
2022/03/24 09:42:17;;;;;;;52.78;37.08;;;20.50;83.90;;;;;;4952650;28;20087;-64
2022/03/24 09:44:45;;;;;;;47.47;35.97;;;20.50;83.20;;;;;;4953905;28;20130;-64
2022/03/24 09:47:12;;;;;;;45.28;34.63;;;20.50;84.30;;;;;;4953787;28;20049;-64
2022/03/24 09:49:42;;;;;;;49.00;38.15;;;20.20;82.70;;;;;;4953599;28;20089;-65
2022/03/24 09:52:12;;;;;;;45.72;38.15;;;20.30;83.10;;;;;;4966862;28;20082;-64
2022/03/24 09:54:41;;;;;;;49.65;38.92;;;20.40;82.30;;;;;;4972143;28;20046;-64
2022/03/24 09:57:08;;;;;;;45.40;36.03;;;20.50;84.00;;;;;;4973162;28;20529;-64
2022/03/24 09:59:34;;;;;;;45.55;36.85;;;20.50;84.10;;;;;;4970340;28;22126;-64
2022/03/24 10:02:04;;;;;;;50.65;35.47;;;20.40;83.40;;;;;;4972751;28;20491;-64
2022/03/24 10:04:48;;;;;;;45.05;34.67;;;20.30;81.80;;;;;;4972297;28;20113;-64
2022/03/24 10:07:14;;;;;;;56.33;37.00;;;20.20;80.30;;;;;;4972516;28;20046;-64
2022/03/24 10:09:45;;;;;;;41.20;33.60;;;20.40;81.90;;;;;;4970079;28;20109;-64
2022/03/24 10:12:22;;;;;;;40.50;34.05;;;20.50;82.20;;;;;;4952380;28;20129;-64
2022/03/24 10:15:10;;;;;;;46.67;32.95;;;20.50;81.60;;;;;;4952584;28;20155;-64
2022/03/24 10:17:37;;;;;;;44.10;36.03;;;20.40;77.80;;;;;;4951669;28;20047;-64
2022/03/24 10:20:07;;;;;;;38.10;32.83;;;20.20;80.20;;;;;;4960722;28;20055;-64
2022/03/24 10:22:34;;;;;;;48.55;34.90;;;20.10;81.20;;;;;;4960563;28;20039;-64
2022/03/24 10:25:01;;;;;;;37.35;32.08;;;20.00;80.70;;;;;;4953393;28;20057;-64
2022/03/24 10:27:28;;;;;;;49.95;39.78;;;20.20;82.70;;;;;;4963277;28;20046;-64
2022/03/24 10:29:56;;;;;;;48.17;36.47;;;20.20;82.40;;;;;;4972465;28;20120;-65
2022/03/24 10:32:31;;;;;;;39.22;33.25;;;20.20;83.20;;;;;;4971486;28;20050;-64
2022/03/24 10:35:07;;;;;;;47.13;36.33;;;20.00;82.30;;;;;;4964486;28;20411;-64
2022/03/24 10:37:33;;;;;;;52.78;42.03;;;19.90;83.20;;;;;;4952437;28;20054;-64
2022/03/24 10:40:05;;;;;;;49.40;40.17;;;19.60;83.90;;;;;;4954142;28;20115;-64
2022/03/24 10:42:36;;;;;;;48.87;38.97;;;19.60;84.70;;;;;;4951819;28;20515;-64
2022/03/24 10:45:20;;;;;;;50.03;42.22;;;19.50;85.50;;;;;;4951645;29;20054;-64
2022/03/24 10:47:55;;;;;;;58.05;43.28;;;19.40;85.00;;;;;;4954721;28;20078;-64
2022/03/24 10:50:40;;;;;;;58.15;43.13;;;19.40;84.90;;;;;;4970662;28;20050;-64
2022/03/24 10:53:15;;;;;;;57.53;25.77;;;19.40;84.90;;;;;;4972552;28;20042;-64
2022/03/24 10:55:44;;;;;;;52.03;42.40;;;19.30;84.00;;;;;;4971207;28;20047;-64
2022/03/24 10:58:22;;;;;;;49.38;38.70;;;19.40;83.90;;;;;;4970314;28;20062;-64
2022/03/24 11:00:51;;;;;;;57.42;42.88;;;19.30;84.70;;;;;;4971881;28;20553;-64
2022/03/24 11:03:18;;;;;;;55.35;44.78;;;19.20;83.60;;;;;;4961211;28;20055;-64
2022/03/24 11:05:44;;;;;;;49.35;41.60;;;19.20;85.20;;;;;;4952641;28;20474;-64
2022/03/24 11:08:10;;;;;;;53.58;42.65;;;19.60;84.90;;;;;;4951607;28;20047;-64
2022/03/24 11:10:47;;;;;;;56.80;43.67;;;19.70;82.20;;;;;;4977192;28;20053;-64
2022/03/24 11:13:27;;;;;;;58.58;43.75;;;19.50;83.50;;;;;;4991514;28;20053;-64
2022/03/24 11:15:53;;;;;;;60.47;45.72;;;19.80;85.30;;;;;;4983296;28;20047;-64
2022/03/24 11:18:22;;;;;;;55.33;43.45;;;19.70;83.90;;;;;;4951247;28;20043;-64
2022/03/24 11:20:49;;;;;;;59.30;44.00;;;19.70;83.90;;;;;;4965695;28;20047;-64
2022/03/24 11:23:22;;;;;;;57.38;44.30;;;19.80;85.00;;;;;;4969319;28;20499;-64
2022/03/24 11:25:53;;;;;;;61.33;43.47;;;19.70;84.30;;;;;;4970650;28;20406;-64
2022/03/24 11:28:20;;;;;;;55.67;44.38;;;19.70;84.90;;;;;;4971468;28;20066;-64
2022/03/24 11:30:46;;;;;;;57.88;44.22;;;19.80;85.00;;;;;;4971014;28;20402;-64
2022/03/24 11:33:13;;;;;;;55.80;42.58;;;20.00;83.70;;;;;;4969881;28;20042;-64
2022/03/24 11:35:40;;;;;;;48.15;38.75;;;20.20;84.50;;;;;;4971016;28;20067;-64
2022/03/24 11:38:06;;;;;;;51.70;40.72;;;20.20;85.50;;;;;;4968694;28;20732;-64
2022/03/24 11:40:33;;;;;;;53.53;38.67;;;20.50;83.40;;;;;;4966635;28;20047;-64
2022/03/24 11:43:09;;;;;;;52.80;42.30;;;20.50;84.20;;;;;;4957343;28;20070;-64
2022/03/24 11:45:48;;;;;;;57.53;40.25;;;20.80;83.00;;;;;;4973802;28;20066;-64
2022/03/24 11:48:16;;;;;;;54.67;40.28;;;20.80;83.00;;;;;;4955651;28;20046;-64
2022/03/24 11:50:52;;;;;;;56.58;42.88;;;20.70;80.90;;;;;;4959250;28;20049;-64
2022/03/24 11:53:29;;;;;;;54.33;38.00;;;20.70;80.70;;;;;;4956086;28;20388;-64
2022/03/24 11:56:01;;;;;;;50.80;39.38;;;20.80;81.20;;;;;;4956238;28;20047;-64
2022/03/24 11:58:27;;;;;;;51.58;39.05;;;21.00;79.40;;;;;;4971143;28;20434;-64
2022/03/24 12:00:53;;;;;;;53.10;40.63;;;21.10;78.60;;;;;;4972496;28;20042;-64
2022/03/24 12:03:39;;;;;;;53.22;38.78;;;21.30;79.70;;;;;;4974566;28;20172;-64
2022/03/24 12:06:05;;;;;;;40.92;30.02;;;20.90;79.30;;;;;;4974779;28;20047;-64
2022/03/24 12:08:59;;;;;;;49.55;38.38;;;21.40;80.00;;;;;;4974566;28;20047;-64
2022/03/24 12:11:31;;;;;;;45.97;33.83;;;21.60;78.80;;;;;;4961033;28;20170;-64
2022/03/24 12:14:02;;;;;;;51.22;33.83;;;21.60;76.40;;;;;;4974249;28;20047;-64
2022/03/24 12:16:29;;;;;;;46.22;36.90;;;21.50;77.60;;;;;;4963815;28;20134;-64
2022/03/24 12:18:55;;;;;;;43.50;33.45;;;21.40;78.80;;;;;;4955720;28;20050;-64
2022/03/24 12:21:22;;;;;;;45.60;34.78;;;21.50;77.60;;;;;;4957117;28;20496;-64
2022/03/24 12:24:09;;;;;;;44.30;34.05;;;21.30;78.50;;;;;;4955776;28;20130;-64
2022/03/24 12:26:59;;;;;;;40.78;33.03;;;21.70;76.20;;;;;;4954404;28;20058;-64
2022/03/24 12:29:26;;;;;;;44.97;33.80;;;21.70;75.10;;;;;;4952976;28;20067;-64
2022/03/24 12:31:58;;;;;;;43.75;32.05;;;21.80;76.10;;;;;;4955407;28;20054;-64
2022/03/24 12:34:45;;;;;;;41.78;29.67;;;22.10;77.50;;;;;;4954053;28;20055;-64